createdAt,value
2022-11-24T00:02:12.236Z,37.55
2022-11-24T00:05:15.276Z,42.35
2022-11-24T00:08:18.576Z,41.90
2022-11-24T00:11:24.501Z,36.35
2022-11-24T00:14:27.450Z,39.28
2022-11-24T00:17:30.416Z,35.55
2022-11-24T00:20:33.055Z,35.42
2022-11-24T00:23:36.334Z,38.60
2022-11-24T00:26:39.054Z,43.30
2022-11-24T00:29:41.989Z,36.45
2022-11-24T00:32:44.650Z,35.42
2022-11-24T00:35:55.116Z,35.45
2022-11-24T00:39:05.967Z,36.70
2022-11-24T00:42:08.845Z,36.45
2022-11-24T00:45:14.065Z,33.88
2022-11-24T00:48:17.410Z,38.20
2022-11-24T00:51:22.317Z,38.75
2022-11-24T00:54:25.342Z,42.93
2022-11-24T00:57:29.245Z,40.15
2022-11-24T01:00:32.153Z,41.20
2022-11-24T01:03:36.826Z,31.92
2022-11-24T01:06:39.785Z,41.85
2022-11-24T01:09:43.433Z,33.07
2022-11-24T01:12:46.574Z,35.60
2022-11-24T01:15:49.242Z,30.62
2022-11-24T01:18:53.652Z,29.92
2022-11-24T01:21:56.313Z,36.00
2022-11-24T01:24:59.368Z,38.27
2022-11-24T01:28:02.462Z,34.78
2022-11-24T01:31:07.580Z,39.00
2022-11-24T01:34:10.228Z,38.88
2022-11-24T01:37:13.218Z,45.40
2022-11-24T01:40:16.147Z,39.67
2022-11-24T01:43:21.549Z,30.08
2022-11-24T01:46:42.166Z,45.45
2022-11-24T01:49:59.140Z,31.45
2022-11-24T01:53:02.314Z,49.50
2022-11-24T01:56:06.787Z,42.97
2022-11-24T01:59:14.505Z,46.17
2022-11-24T02:02:18.083Z,49.95
2022-11-24T02:05:28.604Z,51.92
2022-11-24T02:08:40.697Z,46.45
2022-11-24T02:11:44.790Z,54.90
2022-11-24T02:14:47.785Z,53.10
2022-11-24T02:17:50.629Z,52.20
2022-11-24T02:20:53.575Z,50.35
2022-11-24T02:24:12.388Z,55.42
2022-11-24T02:27:15.291Z,50.50
2022-11-24T02:30:18.222Z,52.85
2022-11-24T02:33:22.497Z,56.45
2022-11-24T02:36:25.285Z,56.30
2022-11-24T02:39:28.290Z,59.65
2022-11-24T02:42:36.164Z,53.67
2022-11-24T02:45:39.485Z,50.38
2022-11-24T02:48:42.131Z,53.20
2022-11-24T02:51:45.122Z,56.42
2022-11-24T02:54:49.814Z,51.28
2022-11-24T02:57:52.765Z,51.03
2022-11-24T03:00:57.449Z,55.75
2022-11-24T03:04:00.671Z,52.83
2022-11-24T03:07:03.419Z,58.08
2022-11-24T03:10:07.928Z,53.40
2022-11-24T03:13:10.814Z,51.27
2022-11-24T03:16:13.747Z,58.20
2022-11-24T03:19:16.429Z,56.97
2022-11-24T03:22:20.950Z,56.92
2022-11-24T03:25:23.863Z,56.00
2022-11-24T03:28:28.179Z,55.63
2022-11-24T03:31:30.857Z,50.28
2022-11-24T03:34:34.295Z,49.92
2022-11-24T03:37:37.521Z,55.67
2022-11-24T03:40:40.512Z,46.03
2022-11-24T03:43:44.295Z,52.80
2022-11-24T03:46:47.492Z,50.38
2022-11-24T03:49:50.128Z,52.03
2022-11-24T03:52:53.222Z,52.30
2022-11-24T03:55:56.355Z,52.47
2022-11-24T03:58:59.318Z,52.50
2022-11-24T04:02:02.053Z,54.53
2022-11-24T04:05:05.947Z,48.65
2022-11-24T04:08:08.956Z,51.03
2022-11-24T04:11:31.752Z,49.22
2022-11-24T04:14:34.927Z,52.87
2022-11-24T04:17:38.296Z,56.25
2022-11-24T04:20:42.195Z,55.05
2022-11-24T04:23:45.122Z,57.85
2022-11-24T04:26:47.870Z,56.30
2022-11-24T04:29:51.326Z,59.90
2022-11-24T04:32:55.346Z,59.22
2022-11-24T04:35:58.221Z,56.75
2022-11-24T04:39:23.768Z,64.28
2022-11-24T04:42:23.656Z,60.40
2022-11-24T04:45:26.516Z,55.90
2022-11-24T04:48:29.902Z,60.55
2022-11-24T04:51:32.541Z,51.72
2022-11-24T04:54:35.796Z,59.35
2022-11-24T04:57:39.300Z,56.92
2022-11-24T05:00:42.236Z,52.13
2022-11-24T05:03:44.887Z,51.78
2022-11-24T05:06:48.074Z,56.20
2022-11-24T05:10:09.069Z,50.88
2022-11-24T05:13:13.239Z,50.03
2022-11-24T05:16:16.020Z,58.67
2022-11-24T05:19:19.020Z,54.70
2022-11-24T05:22:22.881Z,53.92
2022-11-24T05:25:25.725Z,51.28
2022-11-24T05:28:28.782Z,57.53
2022-11-24T05:31:31.715Z,53.57
2022-11-24T05:34:36.178Z,58.25
2022-11-24T05:37:39.302Z,54.83
2022-11-24T05:40:44.173Z,48.15
2022-11-24T05:43:47.046Z,52.80
2022-11-24T05:46:52.841Z,57.50
2022-11-24T05:49:55.773Z,54.38
2022-11-24T05:53:03.134Z,57.85
2022-11-24T05:56:06.390Z,39.83
2022-11-24T05:59:10.135Z,63.05
2022-11-24T06:02:20.915Z,59.03
2022-11-24T06:05:23.911Z,56.00
2022-11-24T06:08:30.905Z,47.65
2022-11-24T06:11:34.294Z,52.45
2022-11-24T06:14:37.165Z,66.57
2022-11-24T06:17:40.433Z,44.73
2022-11-24T06:20:53.136Z,55.75
2022-11-24T06:24:06.344Z,66.57
2022-11-24T06:27:09.042Z,55.28
2022-11-24T06:30:12.748Z,69.03
2022-11-24T06:33:15.390Z,71.43
2022-11-24T06:36:18.372Z,62.20
2022-11-24T06:39:20.881Z,65.93
2022-11-24T06:42:23.819Z,70.85
2022-11-24T06:45:26.564Z,68.43
2022-11-24T06:48:30.191Z,64.23
2022-11-24T06:51:32.750Z,65.47
2022-11-24T06:54:35.949Z,70.07
2022-11-24T06:57:38.883Z,66.82
2022-11-24T07:00:42.112Z,66.00
2022-11-24T07:03:45.568Z,69.57
2022-11-24T07:06:48.469Z,65.57
2022-11-24T07:09:51.066Z,70.60
2022-11-24T07:12:53.988Z,64.07
2022-11-24T07:15:56.637Z,66.40
2022-11-24T07:19:00.021Z,48.50
2022-11-24T07:22:02.880Z,62.25
2022-11-24T07:25:07.637Z,64.22
2022-11-24T07:28:10.208Z,67.03
2022-11-24T07:31:15.859Z,69.68
2022-11-24T07:34:18.523Z,55.10
2022-11-24T07:37:22.842Z,60.45
2022-11-24T07:40:27.494Z,65.97
2022-11-24T07:43:36.297Z,45.42
2022-11-24T07:46:39.297Z,63.45
2022-11-24T07:49:42.206Z,72.37
2022-11-24T07:52:44.735Z,67.22
2022-11-24T07:56:00.470Z,63.65
2022-11-24T07:59:03.750Z,50.22
2022-11-24T08:02:06.780Z,54.83
2022-11-24T08:05:09.695Z,63.33
2022-11-24T08:08:12.343Z,65.75
2022-11-24T08:11:17.908Z,61.17
2022-11-24T08:14:20.643Z,54.22
2022-11-24T08:17:23.591Z,59.22
2022-11-24T08:20:26.234Z,55.47
2022-11-24T08:23:30.139Z,42.78
2022-11-24T08:26:32.706Z,56.33
2022-11-24T08:29:35.546Z,58.20
2022-11-24T08:32:38.179Z,60.15
2022-11-24T08:35:41.027Z,38.30
2022-11-24T08:38:44.881Z,51.95
2022-11-24T08:41:48.003Z,55.72
2022-11-24T08:44:58.539Z,40.20
2022-11-24T08:48:01.811Z,37.60
2022-11-24T08:51:13.108Z,43.17
2022-11-24T08:54:18.774Z,50.65
2022-11-24T08:57:22.012Z,51.50
2022-11-24T09:00:25.297Z,48.75
2022-11-24T09:03:27.885Z,53.17
2022-11-24T09:06:32.050Z,47.27
2022-11-24T09:09:34.660Z,39.08
2022-11-24T09:12:37.537Z,47.13
2022-11-24T09:15:40.032Z,41.70
2022-11-24T09:18:43.400Z,33.63
2022-11-24T09:21:46.003Z,33.30
2022-11-24T09:24:48.966Z,30.12
2022-11-24T09:27:51.730Z,20.98
2022-11-24T09:30:54.720Z,32.55
2022-11-24T09:33:57.933Z,27.73
2022-11-24T09:37:01.637Z,29.27
2022-11-24T09:40:04.714Z,29.70
2022-11-24T09:43:20.239Z,35.25
2022-11-24T09:46:36.207Z,28.67
2022-11-24T09:50:14.998Z,26.17
2022-11-24T09:53:26.755Z,28.43
2022-11-24T09:56:34.615Z,25.17
2022-11-24T09:59:37.925Z,22.73
2022-11-24T10:02:40.973Z,23.60
2022-11-24T10:05:45.498Z,23.50
2022-11-24T10:09:06.780Z,21.10
2022-11-24T10:12:35.716Z,18.98
2022-11-24T10:15:49.102Z,17.95
2022-11-24T10:19:05.036Z,15.68
2022-11-24T10:22:39.343Z,17.30
2022-11-24T10:25:51.144Z,16.73
2022-11-24T10:28:56.069Z,18.58
2022-11-24T10:31:59.251Z,12.40
2022-11-24T10:35:18.163Z,16.95
2022-11-24T10:38:32.290Z,17.35
2022-11-24T10:42:05.863Z,15.07
2022-11-24T10:45:15.214Z,10.73
2022-11-24T10:48:24.463Z,19.45
2022-11-24T10:52:02.259Z,15.52
2022-11-24T10:55:06.313Z,15.30
2022-11-24T10:58:17.202Z,17.90
2022-11-24T11:01:28.835Z,11.18
2022-11-24T11:04:34.914Z,16.48
2022-11-24T11:07:37.544Z,16.90
2022-11-24T11:10:41.871Z,16.40
2022-11-24T11:14:03.082Z,17.50
2022-11-24T11:17:45.411Z,11.57
2022-11-24T11:20:54.537Z,15.00
2022-11-24T11:23:58.308Z,12.52
2022-11-24T11:27:03.357Z,12.73
2022-11-24T11:34:09.548Z,8.18
2022-11-24T11:37:18.362Z,13.40
2022-11-24T11:43:36.172Z,12.25
2022-11-24T11:46:38.716Z,11.57
2022-11-24T11:49:41.714Z,14.25
2022-11-24T11:53:02.596Z,9.15
2022-11-24T11:56:26.741Z,12.07
2022-11-24T12:00:10.244Z,11.90
2022-11-24T12:03:36.289Z,7.90
2022-11-24T12:06:48.193Z,13.30
2022-11-24T12:09:57.652Z,11.40
2022-11-24T12:13:26.723Z,8.85
2022-11-24T12:16:32.611Z,9.93
2022-11-24T12:19:49.146Z,8.83
2022-11-24T12:23:36.635Z,11.30
2022-11-24T12:26:46.607Z,14.65
2022-11-24T12:30:25.706Z,9.70
2022-11-24T12:33:52.309Z,15.57
2022-11-24T12:37:27.992Z,12.90
2022-11-24T12:40:35.970Z,10.77
2022-11-24T12:43:42.105Z,12.48
2022-11-24T12:47:03.111Z,14.93
2022-11-24T12:50:17.831Z,11.82
2022-11-24T12:53:25.844Z,12.03
2022-11-24T12:56:58.082Z,11.40
2022-11-24T13:00:14.636Z,12.15
2022-11-24T13:03:53.105Z,8.18
2022-11-24T13:07:26.240Z,11.70
2022-11-24T13:10:57.328Z,10.47
2022-11-24T13:14:12.203Z,11.75
2022-11-24T13:17:50.269Z,10.98
2022-11-24T13:20:57.236Z,9.05
2022-11-24T13:24:04.771Z,12.57
2022-11-24T13:27:13.575Z,13.67
2022-11-24T13:30:35.128Z,12.77
2022-11-24T13:33:39.164Z,12.98
2022-11-24T13:36:53.829Z,8.27
2022-11-24T13:39:58.732Z,12.75
2022-11-24T13:43:02.837Z,12.27
2022-11-24T13:46:09.966Z,13.98
2022-11-24T13:49:14.769Z,12.57
2022-11-24T13:52:36.228Z,14.25
2022-11-24T13:55:42.051Z,11.10
2022-11-24T13:58:50.654Z,14.07
2022-11-24T14:01:57.915Z,6.70
2022-11-24T14:05:01.063Z,12.93
2022-11-24T14:08:06.511Z,12.95
2022-11-24T14:11:19.257Z,11.27
2022-11-24T14:14:22.519Z,13.73
2022-11-24T14:17:28.624Z,15.48
2022-11-24T14:20:31.660Z,13.57
2022-11-24T14:23:34.629Z,15.38
2022-11-24T14:26:41.828Z,13.70
2022-11-24T14:29:59.499Z,14.33
2022-11-24T14:33:04.105Z,15.88
2022-11-24T14:36:15.531Z,14.57
2022-11-24T14:39:20.429Z,14.18
2022-11-24T14:42:25.689Z,10.20
2022-11-24T14:45:28.529Z,11.87
2022-11-24T14:48:36.016Z,15.20
2022-11-24T14:51:44.952Z,11.05
2022-11-24T14:54:54.725Z,11.63
2022-11-24T14:57:58.580Z,9.07
2022-11-24T15:01:10.270Z,14.13
2022-11-24T15:04:46.277Z,13.30
2022-11-24T15:07:49.107Z,14.35
2022-11-24T15:10:58.250Z,17.73
2022-11-24T15:14:01.247Z,11.18
2022-11-24T15:17:04.762Z,10.43
2022-11-24T15:20:32.277Z,9.38
2022-11-24T15:23:36.674Z,9.75
2022-11-24T15:26:42.110Z,13.70
2022-11-24T15:29:45.069Z,10.98
2022-11-24T15:32:58.542Z,14.80
2022-11-24T15:36:01.449Z,14.02
2022-11-24T15:39:04.563Z,7.72
2022-11-24T15:42:11.866Z,15.13
2022-11-24T15:45:14.887Z,15.48
2022-11-24T15:48:18.275Z,12.53
2022-11-24T15:51:24.166Z,12.07
2022-11-24T15:54:27.847Z,12.85
2022-11-24T15:57:34.566Z,15.48
2022-11-24T16:00:38.018Z,14.52
2022-11-24T16:03:49.080Z,14.00
2022-11-24T16:06:52.195Z,15.43
2022-11-24T16:09:55.105Z,15.95
2022-11-24T16:12:57.916Z,15.50
2022-11-24T16:16:01.304Z,15.32
2022-11-24T16:19:04.182Z,17.60
2022-11-24T16:22:09.098Z,28.70
2022-11-24T16:25:12.729Z,25.40
2022-11-24T16:28:17.327Z,30.05
2022-11-24T16:31:20.306Z,34.15
2022-11-24T16:34:23.388Z,30.20
2022-11-24T16:37:26.358Z,33.67
2022-11-24T16:40:29.750Z,33.67
2022-11-24T16:43:32.506Z,36.70
2022-11-24T16:46:35.517Z,27.50
2022-11-24T16:49:38.664Z,38.03
2022-11-24T16:52:41.993Z,36.20
2022-11-24T16:55:45.099Z,42.70
2022-11-24T16:58:48.556Z,32.78
2022-11-24T17:01:51.290Z,34.25
2022-11-24T17:04:54.291Z,38.30
2022-11-24T17:07:57.404Z,38.78
2022-11-24T17:11:21.668Z,38.33
2022-11-24T17:14:26.032Z,48.58
2022-11-24T17:17:29.148Z,37.75
2022-11-24T17:20:31.887Z,34.83
2022-11-24T17:23:37.173Z,33.42
2022-11-24T17:26:42.498Z,30.60
2022-11-24T17:29:49.405Z,41.25
2022-11-24T17:32:56.592Z,40.10
2022-11-24T17:36:05.123Z,38.97
2022-11-24T17:39:08.242Z,42.53
2022-11-24T17:42:11.501Z,43.70
2022-11-24T17:45:14.553Z,47.15
2022-11-24T17:48:17.539Z,51.45
2022-11-24T17:51:22.706Z,57.33
2022-11-24T17:57:49.051Z,57.35
2022-11-24T18:00:52.451Z,49.63
2022-11-24T18:03:55.478Z,62.10
2022-11-24T18:07:01.026Z,60.97
2022-11-24T18:10:04.873Z,43.20
2022-11-24T18:13:18.207Z,60.55
2022-11-24T18:16:35.218Z,54.05
2022-11-24T18:19:43.049Z,46.83
2022-11-24T18:26:12.228Z,50.03
2022-11-24T18:29:15.627Z,52.75
2022-11-24T18:32:18.761Z,70.30
2022-11-24T18:35:22.258Z,73.43
2022-11-24T18:38:25.978Z,84.83
2022-11-24T18:41:29.359Z,98.68
2022-11-24T18:44:32.693Z,85.03
2022-11-24T18:47:36.862Z,81.90
2022-11-24T18:50:39.916Z,75.20
2022-11-24T18:53:45.566Z,77.30
2022-11-24T18:56:48.597Z,83.60
2022-11-24T18:59:52.423Z,75.00
2022-11-24T19:02:55.695Z,64.22
2022-11-24T19:06:04.629Z,76.18
2022-11-24T19:09:20.547Z,52.90
2022-11-24T19:12:24.998Z,57.47
2022-11-24T19:15:28.147Z,61.13
2022-11-24T19:18:32.004Z,55.88
2022-11-24T19:21:38.179Z,50.35
2022-11-24T19:24:42.789Z,58.00
2022-11-24T19:27:45.971Z,63.72
2022-11-24T19:30:49.415Z,60.00
2022-11-24T19:33:54.731Z,53.72
2022-11-24T19:36:58.448Z,45.28
2022-11-24T19:40:02.964Z,52.80
2022-11-24T19:43:06.843Z,46.78
2022-11-24T19:46:13.024Z,44.85
2022-11-24T19:49:17.123Z,44.80
2022-11-24T19:52:20.039Z,42.20
2022-11-24T19:55:22.994Z,39.17
2022-11-24T20:05:01.502Z,48.38
2022-11-24T20:08:05.904Z,45.42
2022-11-24T20:11:13.350Z,51.10
2022-11-24T20:14:20.941Z,49.50
2022-11-24T20:17:30.226Z,52.17
2022-11-24T20:20:33.094Z,54.03
2022-11-24T20:23:37.216Z,49.53
2022-11-24T20:26:45.278Z,46.87
2022-11-24T20:29:48.378Z,45.42
2022-11-24T20:32:51.235Z,44.28
2022-11-24T20:35:54.901Z,49.40
2022-11-24T20:39:01.036Z,41.35
2022-11-24T20:42:04.535Z,39.90
2022-11-24T20:45:08.194Z,41.83
2022-11-24T20:48:15.705Z,40.30
2022-11-24T20:51:25.961Z,38.55
2022-11-24T20:54:29.603Z,41.00
2022-11-24T20:57:32.901Z,43.03
2022-11-24T21:00:36.387Z,39.95
2022-11-24T21:03:43.266Z,38.10
2022-11-24T21:06:47.573Z,45.28
2022-11-24T21:09:50.237Z,49.78
2022-11-24T21:12:54.659Z,59.47
2022-11-24T21:15:57.448Z,61.78
2022-11-24T21:19:04.694Z,69.65
2022-11-24T21:22:08.797Z,54.22
2022-11-24T21:25:12.304Z,43.13
2022-11-24T21:28:16.375Z,42.63
2022-11-24T21:31:21.895Z,43.58
2022-11-24T21:34:24.592Z,49.05
2022-11-24T21:37:27.397Z,43.67
2022-11-24T21:40:30.584Z,47.50
2022-11-24T21:43:36.303Z,49.33
2022-11-24T21:46:44.940Z,43.45
2022-11-24T21:49:48.896Z,45.08
2022-11-24T21:52:51.816Z,47.60
2022-11-24T21:55:56.303Z,42.42
2022-11-24T21:58:59.018Z,47.30
2022-11-24T22:02:02.017Z,50.63
2022-11-24T22:05:05.129Z,49.08
2022-11-24T22:08:07.783Z,45.22
2022-11-24T22:11:19.784Z,43.17
2022-11-24T22:14:22.428Z,37.97
2022-11-24T22:17:25.383Z,38.95
2022-11-24T22:20:27.986Z,36.88
2022-11-24T22:23:32.444Z,29.37
2022-11-24T22:26:36.031Z,33.08
2022-11-24T22:29:38.909Z,30.80
2022-11-24T22:32:41.606Z,24.90
2022-11-24T22:35:44.458Z,30.17
2022-11-24T22:38:47.711Z,27.08
2022-11-24T22:41:50.929Z,26.95
2022-11-24T22:44:53.553Z,24.80
2022-11-24T22:47:56.664Z,25.48
2022-11-24T22:51:20.066Z,24.65
2022-11-24T22:54:22.981Z,24.10
2022-11-24T22:57:25.715Z,24.23
2022-11-24T23:00:28.559Z,22.23
2022-11-24T23:03:32.512Z,21.62
2022-11-24T23:06:35.474Z,22.85
2022-11-24T23:09:38.146Z,22.45
2022-11-24T23:12:41.342Z,21.73
2022-11-24T23:15:44.018Z,19.57
2022-11-24T23:18:53.796Z,21.80
2022-11-24T23:21:56.756Z,19.70
2022-11-24T23:24:59.682Z,38.92
2022-11-24T23:28:02.370Z,49.20
2022-11-24T23:31:11.466Z,48.07
2022-11-24T23:34:14.103Z,43.72
2022-11-24T23:37:17.037Z,47.13
2022-11-24T23:40:19.702Z,46.20
2022-11-24T23:43:22.690Z,39.17
2022-11-24T23:46:26.960Z,32.17
2022-11-24T23:49:30.234Z,29.77
2022-11-24T23:52:32.885Z,26.70
2022-11-24T23:55:36.596Z,28.87
2022-11-24T23:58:39.209Z,29.75
